NCAR-RAP Real-Time Weather Data

Output produced by METARs form (08 May 2021  02:11 UTC)
found at http://weather.rap.ucar.edu/surface/
 
KCHA 080153Z 23004KT 10SM CLR 17/03 A3007 RMK AO2 SLP178 T01670033
KCHA 080053Z 25004KT 10SM CLR 18/02 A3006 RMK AO2 SLP175 T01780022
KCHA 072353Z 29006KT 10SM FEW070 19/02 A3006 RMK AO2 SLP176 T01890017 10217 20189 56007
KCHA 072253Z 31008KT 10SM SCT075 21/01 A3007 RMK AO2 SLP177 T02060006
KCHA 072153Z 31007G17KT 10SM SCT075 21/00 A3007 RMK AO2 SLP178 T02060000
KCHA 072053Z 29010KT 10SM SCT075 20/01 A3008 RMK AO2 SLP183 T02000006 56015
KCHA 071953Z 29010G19KT 10SM SCT070 21/01 A3009 RMK AO2 SLP186 T02110011
KCHA 071853Z 32009G16KT 10SM SCT065 20/01 A3011 RMK AO2 SLP191 T02000011
KCHA 071753Z 35014G22KT 10SM SCT065 19/01 A3013 RMK AO2 SLP198 T01940011 10200 20117 58007
KCHA 071653Z 35012G25KT 10SM SCT065 19/01 A3015 RMK AO2 SLP207 T01890006
KCHA 071553Z 33012G25KT 10SM SCT050 SCT070 18/02 A3016 RMK AO2 SLP208 T01830022
KCHA 071453Z 32013KT 10SM FEW042 16/02 A3015 RMK AO2 SLP206 T01610022 51016
KCHA 071353Z 32011KT 10SM CLR 14/04 A3014 RMK AO2 SLP204 T01440044
KCHA 071253Z 33008G17KT 10SM SCT025 12/06 A3012 RMK AO2 SLP197 T01220056
KCHA 071153Z 32006KT 10SM SCT025 SCT037 12/07 A3010 RMK AO2 SLP190 T01220072 10122 20106 53020
KCHA 071053Z 33004KT 10SM FEW012 SCT025 BKN037 12/07 A3007 RMK AO2 SLP177 T01170072 $